sensor_id;sensor_type;location;lat;lon;timestamp;pressure;altitude;pressure_sealevel;temperature;humidity
46598;BME280;32318;48.858;8.252;2023-02-08T00:00:45;102307.69;;;-0.87;60.02
46598;BME280;32318;48.858;8.252;2023-02-08T00:08:45;102299.88;;;-0.90;60.49
46598;BME280;32318;48.858;8.252;2023-02-08T00:16:46;102292.91;;;-0.91;60.38
46598;BME280;32318;48.858;8.252;2023-02-08T00:24:46;102292.97;;;-0.92;60.25
46598;BME280;32318;48.858;8.252;2023-02-08T00:32:46;102285.94;;;-0.92;60.48
46598;BME280;32318;48.858;8.252;2023-02-08T00:40:46;102286.84;;;-0.93;60.62
46598;BME280;32318;48.858;8.252;2023-02-08T00:48:47;102293.81;;;-0.92;59.90
46598;BME280;32318;48.858;8.252;2023-02-08T00:56:47;102278.41;;;-1.04;60.65
46598;BME280;32318;48.858;8.252;2023-02-08T01:04:47;102274.13;;;-1.08;60.92
46598;BME280;32318;48.858;8.252;2023-02-08T01:12:47;102282.84;;;-1.08;61.28
46598;BME280;32318;48.858;8.252;2023-02-08T01:20:48;102281.31;;;-1.17;61.37
46598;BME280;32318;48.858;8.252;2023-02-08T01:28:48;102278.09;;;-1.28;61.59
46598;BME280;32318;48.858;8.252;2023-02-08T01:36:49;102274.72;;;-1.33;61.91
46598;BME280;32318;48.858;8.252;2023-02-08T01:53:14;102273.38;;;-1.51;62.33
46598;BME280;32318;48.858;8.252;2023-02-08T02:01:15;102255.47;;;-1.68;63.38
46598;BME280;32318;48.858;8.252;2023-02-08T02:09:26;102251.06;;;-1.66;62.79
46598;BME280;32318;48.858;8.252;2023-02-08T02:17:27;102242.19;;;-1.61;62.54
46598;BME280;32318;48.858;8.252;2023-02-08T02:41:53;102249.81;;;-1.89;62.97
46598;BME280;32318;48.858;8.252;2023-02-08T02:50:22;102256.97;;;-1.97;63.05
46598;BME280;32318;48.858;8.252;2023-02-08T02:58:25;102247.22;;;-1.91;62.09
46598;BME280;32318;48.858;8.252;2023-02-08T03:06:55;102245.41;;;-1.87;61.43
46598;BME280;32318;48.858;8.252;2023-02-08T03:15:28;102238.44;;;-1.88;61.82
46598;BME280;32318;48.858;8.252;2023-02-08T03:31:50;102237.84;;;-2.01;61.54
46598;BME280;32318;48.858;8.252;2023-02-08T03:40:00;102240.69;;;-2.12;61.69
46598;BME280;32318;48.858;8.252;2023-02-08T03:48:03;102232.06;;;-2.15;61.96
46598;BME280;32318;48.858;8.252;2023-02-08T03:56:19;102232.06;;;-2.15;62.04
46598;BME280;32318;48.858;8.252;2023-02-08T04:04:20;102228.38;;;-2.07;61.04
46598;BME280;32318;48.858;8.252;2023-02-08T04:12:22;102230.53;;;-2.26;62.62
46598;BME280;32318;48.858;8.252;2023-02-08T04:20:22;102240.38;;;-2.39;63.37
46598;BME280;32318;48.858;8.252;2023-02-08T04:28:22;102233.78;;;-2.58;64.44
46598;BME280;32318;48.858;8.252;2023-02-08T04:36:23;102237.41;;;-2.65;65.02
46598;BME280;32318;48.858;8.252;2023-02-08T04:44:23;102231.50;;;-2.75;65.56
46598;BME280;32318;48.858;8.252;2023-02-08T04:52:23;102217.63;;;-2.79;65.98
46598;BME280;32318;48.858;8.252;2023-02-08T05:00:23;102219.19;;;-2.70;65.55
46598;BME280;32318;48.858;8.252;2023-02-08T05:08:24;102200.75;;;-2.62;65.80
46598;BME280;32318;48.858;8.252;2023-02-08T05:16:25;102200.13;;;-2.75;65.83
46598;BME280;32318;48.858;8.252;2023-02-08T05:24:25;102195.56;;;-2.65;65.91
46598;BME280;32318;48.858;8.252;2023-02-08T05:32:26;102185.41;;;-2.81;66.54
46598;BME280;32318;48.858;8.252;2023-02-08T05:40:26;102189.97;;;-2.91;67.36
46598;BME280;32318;48.858;8.252;2023-02-08T05:48:26;102195.22;;;-2.92;67.66
46598;BME280;32318;48.858;8.252;2023-02-08T05:56:27;102207.97;;;-2.75;66.90
46598;BME280;32318;48.858;8.252;2023-02-08T06:04:27;102213.22;;;-2.77;67.00
46598;BME280;32318;48.858;8.252;2023-02-08T06:12:28;102206.50;;;-2.90;67.96
46598;BME280;32318;48.858;8.252;2023-02-08T06:20:28;102218.84;;;-2.98;69.10
46598;BME280;32318;48.858;8.252;2023-02-08T06:28:28;102230.34;;;-3.09;69.77
46598;BME280;32318;48.858;8.252;2023-02-08T06:36:28;102240.94;;;-3.17;70.20
46598;BME280;32318;48.858;8.252;2023-02-08T06:44:29;102224.34;;;-3.16;70.81
46598;BME280;32318;48.858;8.252;2023-02-08T06:52:29;102237.56;;;-3.23;70.69
46598;BME280;32318;48.858;8.252;2023-02-08T07:00:29;102233.06;;;-3.15;70.55
46598;BME280;32318;48.858;8.252;2023-02-08T07:08:31;102244.44;;;-3.18;70.10
46598;BME280;32318;48.858;8.252;2023-02-08T07:16:31;102244.44;;;-3.19;70.71
46598;BME280;32318;48.858;8.252;2023-02-08T07:24:36;102244.38;;;-3.13;70.34
46598;BME280;32318;48.858;8.252;2023-02-08T07:32:37;102254.75;;;-3.10;69.93
46598;BME280;32318;48.858;8.252;2023-02-08T07:40:37;102241.50;;;-2.99;69.28
46598;BME280;32318;48.858;8.252;2023-02-08T07:48:38;102244.84;;;-2.91;69.34
46598;BME280;32318;48.858;8.252;2023-02-08T07:56:38;102239.34;;;-2.77;68.60
46598;BME280;32318;48.858;8.252;2023-02-08T08:04:39;102235.38;;;-2.51;67.82
46598;BME280;32318;48.858;8.252;2023-02-08T08:12:39;102234.44;;;-2.47;67.61
46598;BME280;32318;48.858;8.252;2023-02-08T08:20:39;102235.72;;;-2.24;67.31
46598;BME280;32318;48.858;8.252;2023-02-08T08:28:40;102222.31;;;-2.09;66.54
46598;BME280;32318;48.858;8.252;2023-02-08T08:36:41;102223.72;;;-1.92;65.49
46598;BME280;32318;48.858;8.252;2023-02-08T08:44:41;102217.81;;;-1.64;63.66
46598;BME280;32318;48.858;8.252;2023-02-08T08:52:41;102208.84;;;-1.54;64.02
46598;BME280;32318;48.858;8.252;2023-02-08T09:00:41;102205.16;;;-1.47;64.51
46598;BME280;32318;48.858;8.252;2023-02-08T09:08:43;102207.31;;;-1.27;63.16
46598;BME280;32318;48.858;8.252;2023-02-08T09:16:43;102206.50;;;-0.96;61.99
46598;BME280;32318;48.858;8.252;2023-02-08T09:24:47;102209.34;;;-0.72;60.32
46598;BME280;32318;48.858;8.252;2023-02-08T09:32:47;102203.97;;;-0.66;60.72
46598;BME280;32318;48.858;8.252;2023-02-08T09:41:07;102194.50;;;-0.41;60.51
46598;BME280;32318;48.858;8.252;2023-02-08T09:49:18;102182.78;;;0.01;57.78
46598;BME280;32318;48.858;8.252;2023-02-08T09:57:23;102184.78;;;0.21;57.98
46598;BME280;32318;48.858;8.252;2023-02-08T10:05:26;102195.84;;;0.57;55.43
46598;BME280;32318;48.858;8.252;2023-02-08T10:21:57;102177.91;;;1.21;51.21
46598;BME280;32318;48.858;8.252;2023-02-08T10:54:33;102135.44;;;2.00;49.16
46598;BME280;32318;48.858;8.252;2023-02-08T11:02:39;102133.31;;;2.30;46.59
46598;BME280;32318;48.858;8.252;2023-02-08T11:10:43;102108.88;;;2.47;47.38
46598;BME280;32318;48.858;8.252;2023-02-08T11:18:58;102105.22;;;2.72;46.08
46598;BME280;32318;48.858;8.252;2023-02-08T11:27:38;102103.00;;;2.82;46.43
46598;BME280;32318;48.858;8.252;2023-02-08T11:35:52;102085.38;;;3.03;45.69
46598;BME280;32318;48.858;8.252;2023-02-08T11:44:02;102073.47;;;3.13;44.81
46598;BME280;32318;48.858;8.252;2023-02-08T11:52:06;102058.06;;;3.23;44.49
46598;BME280;32318;48.858;8.252;2023-02-08T12:00:19;102045.00;;;3.39;45.03
46598;BME280;32318;48.858;8.252;2023-02-08T12:08:37;102055.22;;;3.65;43.26
46598;BME280;32318;48.858;8.252;2023-02-08T12:25:08;102042.84;;;3.84;43.92
46598;BME280;32318;48.858;8.252;2023-02-08T12:42:02;102013.97;;;3.99;42.97
46598;BME280;32318;48.858;8.252;2023-02-08T13:06:21;101986.53;;;4.35;41.39
46598;BME280;32318;48.858;8.252;2023-02-08T13:14:30;101976.59;;;4.40;41.01
46598;BME280;32318;48.858;8.252;2023-02-08T13:22:34;101980.03;;;4.42;41.47
46598;BME280;32318;48.858;8.252;2023-02-08T13:30:37;101974.97;;;4.37;41.51
46598;BME280;32318;48.858;8.252;2023-02-08T13:38:38;101976.59;;;4.40;41.02
46598;BME280;32318;48.858;8.252;2023-02-08T13:46:48;101976.09;;;4.49;41.49
46598;BME280;32318;48.858;8.252;2023-02-08T14:03:32;101957.59;;;4.49;40.98
46598;BME280;32318;48.858;8.252;2023-02-08T14:11:53;101966.81;;;4.58;40.84
46598;BME280;32318;48.858;8.252;2023-02-08T14:20:04;101959.41;;;4.65;39.96
46598;BME280;32318;48.858;8.252;2023-02-08T14:28:06;101962.50;;;4.73;40.20
46598;BME280;32318;48.858;8.252;2023-02-08T14:36:25;101954.41;;;4.76;39.52
46598;BME280;32318;48.858;8.252;2023-02-08T14:52:50;101946.38;;;4.78;40.08
46598;BME280;32318;48.858;8.252;2023-02-08T15:00:52;101947.28;;;4.77;40.08
46598;BME280;32318;48.858;8.252;2023-02-08T15:08:54;101940.66;;;4.85;40.35
46598;BME280;32318;48.858;8.252;2023-02-08T15:16:55;101949.41;;;4.70;41.02
46598;BME280;32318;48.858;8.252;2023-02-08T15:25:23;101932.84;;;4.66;41.27
46598;BME280;32318;48.858;8.252;2023-02-08T15:33:21;101926.50;;;4.37;44.07
46598;BME280;32318;48.858;8.252;2023-02-08T15:41:32;101925.06;;;4.47;44.27
46598;BME280;32318;48.858;8.252;2023-02-08T15:49:36;101922.59;;;4.44;44.66
46598;BME280;32318;48.858;8.252;2023-02-08T15:57:40;101920.47;;;4.17;45.90
46598;BME280;32318;48.858;8.252;2023-02-08T16:05:50;101912.81;;;3.95;47.21
46598;BME280;32318;48.858;8.252;2023-02-08T16:13:55;101911.75;;;3.82;47.28
46598;BME280;32318;48.858;8.252;2023-02-08T16:22:18;101917.50;;;3.55;47.82
46598;BME280;32318;48.858;8.252;2023-02-08T16:30:22;101930.69;;;3.37;48.11
46598;BME280;32318;48.858;8.252;2023-02-08T16:38:23;101930.25;;;3.10;49.20
46598;BME280;32318;48.858;8.252;2023-02-08T16:46:23;101925.75;;;2.93;50.25
46598;BME280;32318;48.858;8.252;2023-02-08T16:54:25;101939.34;;;2.85;50.01
46598;BME280;32318;48.858;8.252;2023-02-08T17:02:25;101940.03;;;2.70;50.02
46598;BME280;32318;48.858;8.252;2023-02-08T17:10:30;101952.41;;;2.48;50.60
46598;BME280;32318;48.858;8.252;2023-02-08T17:18:31;101949.53;;;2.34;51.15
46598;BME280;32318;48.858;8.252;2023-02-08T17:26:36;101945.59;;;2.24;51.88
46598;BME280;32318;48.858;8.252;2023-02-08T17:34:36;101950.50;;;2.12;51.90
46598;BME280;32318;48.858;8.252;2023-02-08T17:42:38;101946.88;;;1.94;52.65
46598;BME280;32318;48.858;8.252;2023-02-08T17:50:41;101957.94;;;1.82;52.94
46598;BME280;32318;48.858;8.252;2023-02-08T17:58:43;101949.47;;;1.73;52.47
46598;BME280;32318;48.858;8.252;2023-02-08T18:06:43;101955.50;;;1.77;51.32
46598;BME280;32318;48.858;8.252;2023-02-08T18:14:44;101949.81;;;1.66;51.65
46598;BME280;32318;48.858;8.252;2023-02-08T18:22:44;101957.31;;;1.32;52.58
46598;BME280;32318;48.858;8.252;2023-02-08T18:30:44;101952.97;;;1.31;52.86
46598;BME280;32318;48.858;8.252;2023-02-08T18:38:51;101956.50;;;1.30;53.27
46598;BME280;32318;48.858;8.252;2023-02-08T18:46:51;101951.13;;;1.33;52.93
46598;BME280;32318;48.858;8.252;2023-02-08T18:54:52;101961.47;;;1.38;52.95
46598;BME280;32318;48.858;8.252;2023-02-08T19:02:52;101959.84;;;1.35;53.08
46598;BME280;32318;48.858;8.252;2023-02-08T19:10:52;101958.03;;;1.14;53.82
46598;BME280;32318;48.858;8.252;2023-02-08T19:18:52;101949.38;;;1.12;54.12
46598;BME280;32318;48.858;8.252;2023-02-08T19:26:55;101951.28;;;0.84;54.69
46598;BME280;32318;48.858;8.252;2023-02-08T19:34:55;101937.31;;;0.60;55.97
46598;BME280;32318;48.858;8.252;2023-02-08T19:42:56;101955.31;;;0.47;56.48
46598;BME280;32318;48.858;8.252;2023-02-08T19:50:58;101941.19;;;0.50;55.96
46598;BME280;32318;48.858;8.252;2023-02-08T19:59:03;101929.53;;;0.33;56.54
46598;BME280;32318;48.858;8.252;2023-02-08T20:07:04;101927.44;;;0.18;56.66
46598;BME280;32318;48.858;8.252;2023-02-08T20:15:05;101917.06;;;0.14;57.35
46598;BME280;32318;48.858;8.252;2023-02-08T20:23:06;101913.97;;;0.03;57.86
46598;BME280;32318;48.858;8.252;2023-02-08T20:31:08;101931.97;;;-0.11;58.70
46598;BME280;32318;48.858;8.252;2023-02-08T20:39:11;101933.19;;;-0.22;59.87
46598;BME280;32318;48.858;8.252;2023-02-08T20:47:12;101935.72;;;-0.19;59.39
46598;BME280;32318;48.858;8.252;2023-02-08T20:55:15;101931.75;;;-0.30;59.51
46598;BME280;32318;48.858;8.252;2023-02-08T21:03:15;101919.63;;;-0.35;59.92
46598;BME280;32318;48.858;8.252;2023-02-08T21:11:20;101929.47;;;-0.41;59.15
46598;BME280;32318;48.858;8.252;2023-02-08T21:19:38;101925.69;;;-0.59;60.61
46598;BME280;32318;48.858;8.252;2023-02-08T21:36:42;101923.59;;;-0.76;59.80
46598;BME280;32318;48.858;8.252;2023-02-08T21:44:42;101917.88;;;-0.88;60.85
46598;BME280;32318;48.858;8.252;2023-02-08T21:52:43;101895.41;;;-0.97;62.06
46598;BME280;32318;48.858;8.252;2023-02-08T22:01:02;101899.97;;;-1.03;62.21
46598;BME280;32318;48.858;8.252;2023-02-08T22:09:02;101891.94;;;-0.97;60.75
46598;BME280;32318;48.858;8.252;2023-02-08T22:17:02;101887.81;;;-1.04;61.54
46598;BME280;32318;48.858;8.252;2023-02-08T22:25:06;101885.19;;;-1.04;62.63
46598;BME280;32318;48.858;8.252;2023-02-08T22:33:06;101876.25;;;-0.99;61.25
46598;BME280;32318;48.858;8.252;2023-02-08T22:41:14;101884.16;;;-1.00;61.27
46598;BME280;32318;48.858;8.252;2023-02-08T22:49:15;101886.88;;;-1.03;62.14
46598;BME280;32318;48.858;8.252;2023-02-08T22:57:15;101879.06;;;-1.05;62.50
46598;BME280;32318;48.858;8.252;2023-02-08T23:05:15;101888.72;;;-1.07;62.12
46598;BME280;32318;48.858;8.252;2023-02-08T23:13:16;101886.16;;;-1.08;62.96
46598;BME280;32318;48.858;8.252;2023-02-08T23:21:18;101890.50;;;-1.07;63.08
46598;BME280;32318;48.858;8.252;2023-02-08T23:29:19;101880.72;;;-1.02;64.40
46598;BME280;32318;48.858;8.252;2023-02-08T23:37:19;101893.81;;;-1.01;64.08
46598;BME280;32318;48.858;8.252;2023-02-08T23:45:19;101889.50;;;-1.03;63.50
46598;BME280;32318;48.858;8.252;2023-02-08T23:53:19;101875.59;;;-1.05;63.40
